Time;durP1;ratioP1;P1;durP2;ratioP2;P2;SDS_P1;SDS_P2;PMS_P1;PMS_P2;Temp;Humidity;BMP_temperature;BMP_pressure;BME280_temperature;BME280_humidity;BME280_pressure;Samples;Min_cycle;Max_cycle;Signal;HPM_P1;HPM_P2
2021/11/23 00:02:12;;;;;;;5.72;2.47;;;;;;;;;;10401025;28;20057;-71
2021/11/23 00:07:17;;;;;;;7.80;3.53;;;;;;;;;;10389618;28;20443;-71
2021/11/23 00:12:20;;;;;;;9.13;4.03;;;;;;;;;;10399640;28;20105;-70
2021/11/23 00:17:22;;;;;;;9.68;4.20;;;;;;;;;;10399590;28;20117;-71
2021/11/23 00:22:27;;;;;;;7.65;3.30;;;;;;;;;;10403128;28;20041;-69
2021/11/23 00:27:29;;;;;;;;;;;;;;;;;;10384239;28;20026;-70
2021/11/23 00:32:32;;;;;;;6.60;2.65;;;;;;;;;;10401968;28;19948;-71
2021/11/23 00:37:36;;;;;;;4.22;2.22;;;;;;;;;;10395294;28;20116;-70
2021/11/23 00:42:39;;;;;;;9.38;3.55;;;;;;;;;;10388188;28;20120;-71
2021/11/23 00:47:42;;;;;;;9.70;3.90;;;;;;;;;;10396934;28;20044;-70
2021/11/23 00:52:46;;;;;;;9.67;3.77;;;;;;;;;;10402602;28;20051;-71
2021/11/23 00:57:49;;;;;;;11.00;4.05;;;;;;;;;;10398475;28;20129;-71
2021/11/23 01:02:52;;;;;;;11.73;3.87;;;;;;;;;;10400513;28;20041;-70
2021/11/23 01:07:57;;;;;;;12.65;4.30;;;;;;;;;;10400754;28;20025;-71
2021/11/23 01:12:59;;;;;;;9.25;3.92;;;;;;;;;;10405082;28;20041;-70
2021/11/23 01:18:02;;;;;;;11.23;4.43;;;;;;;;;;10398972;28;20041;-70
2021/11/23 01:23:07;;;;;;;9.70;4.10;;;;;;;;;;10385941;28;20065;-70
2021/11/23 01:28:10;;;;;;;3.07;1.20;;;;;;;;;;10393308;28;20537;-70
2021/11/23 01:33:13;;;;;;;8.40;2.70;;;;;;;;;;10396482;28;20504;-71
2021/11/23 01:38:17;;;;;;;10.73;3.70;;;;;;;;;;10386913;28;20033;-71
2021/11/23 01:43:20;;;;;;;9.73;3.10;;;;;;;;;;10395036;28;20477;-70
2021/11/23 01:48:23;;;;;;;13.57;4.43;;;;;;;;;;10394067;28;20401;-72
2021/11/23 01:53:27;;;;;;;9.50;3.60;;;;;;;;;;10388586;28;20422;-71
2021/11/23 01:58:30;;;;;;;;;;;;;;;;;;10380645;28;20099;-71
2021/11/23 02:03:32;;;;;;;9.63;3.93;;;;;;;;;;10390339;28;20324;-71
2021/11/23 02:08:37;;;;;;;7.17;3.40;;;;;;;;;;10392924;28;20084;-71
2021/11/23 02:14:00;;;;;;;4.88;2.35;;;;;;;;;;10388145;28;20413;-70
2021/11/23 02:19:03;;;;;;;9.00;4.10;;;;;;;;;;10387943;28;20530;-70
2021/11/23 02:24:07;;;;;;;7.47;3.40;;;;;;;;;;10388128;28;20044;-71
2021/11/23 02:29:16;;;;;;;7.10;2.90;;;;;;;;;;10376627;28;20042;-70
2021/11/23 02:34:19;;;;;;;8.93;3.27;;;;;;;;;;10390590;28;20046;-71
2021/11/23 02:39:23;;;;;;;10.63;4.10;;;;;;;;;;10396478;28;20041;-71
2021/11/23 02:44:26;;;;;;;10.52;4.20;;;;;;;;;;10401663;28;20506;-71
2021/11/23 02:49:29;;;;;;;10.03;3.70;;;;;;;;;;10400964;28;20401;-71
2021/11/23 02:54:33;;;;;;;10.40;4.17;;;;;;;;;;10382735;28;20135;-69
2021/11/23 02:59:36;;;;;;;11.35;4.28;;;;;;;;;;10383427;28;20034;-70
2021/11/23 03:04:38;;;;;;;11.33;4.13;;;;;;;;;;10391827;28;20103;-71
2021/11/23 03:09:43;;;;;;;10.67;4.30;;;;;;;;;;10396681;28;20080;-70
2021/11/23 03:14:45;;;;;;;;;;;;;;;;;;10405661;28;20033;-70
2021/11/23 03:19:49;;;;;;;9.17;3.37;;;;;;;;;;10404085;28;20027;-70
2021/11/23 03:24:53;;;;;;;10.05;3.70;;;;;;;;;;10393964;28;20124;-71
2021/11/23 03:29:56;;;;;;;9.88;3.53;;;;;;;;;;10398743;28;20061;-71
2021/11/23 03:34:59;;;;;;;11.80;4.78;;;;;;;;;;10390646;28;20121;-72
2021/11/23 03:40:05;;;;;;;11.33;3.60;;;;;;;;;;10394888;28;20470;-72
2021/11/23 03:45:08;;;;;;;14.17;4.40;;;;;;;;;;10387266;28;20045;-71
2021/11/23 03:50:11;;;;;;;12.33;4.40;;;;;;;;;;10394601;28;20069;-70
2021/11/23 03:55:17;;;;;;;12.90;5.00;;;;;;;;;;10395349;28;20057;-70
2021/11/23 04:00:21;;;;;;;10.33;4.10;;;;;;;;;;10412706;28;20026;-70
2021/11/23 04:05:24;;;;;;;11.13;3.28;;;;;;;;;;10401437;28;20045;-70
2021/11/23 04:10:28;;;;;;;11.17;4.60;;;;;;;;;;10400350;28;20042;-71
2021/11/23 04:15:31;;;;;;;10.00;4.10;;;;;;;;;;10395870;28;20037;-72
2021/11/23 04:20:54;;;;;;;9.93;3.83;;;;;;;;;;10403246;28;20041;-70
2021/11/23 04:26:18;;;;;;;12.00;4.90;;;;;;;;;;10395831;28;20042;-71
2021/11/23 04:31:21;;;;;;;11.57;4.53;;;;;;;;;;10394820;28;20077;-71
2021/11/23 04:36:24;;;;;;;12.93;4.83;;;;;;;;;;10393214;28;20045;-70
2021/11/23 04:41:28;;;;;;;11.87;3.90;;;;;;;;;;10396500;28;20076;-70
2021/11/23 04:46:31;;;;;;;8.37;3.43;;;;;;;;;;10399907;28;20485;-70
2021/11/23 04:51:34;;;;;;;10.73;4.90;;;;;;;;;;10388315;28;20064;-70
2021/11/23 04:56:38;;;;;;;14.17;4.47;;;;;;;;;;10388151;28;20049;-70
2021/11/23 05:01:41;;;;;;;7.57;2.67;;;;;;;;;;10401642;28;20139;-70
2021/11/23 05:06:44;;;;;;;6.13;2.53;;;;;;;;;;10394217;28;20049;-69
2021/11/23 05:11:48;;;;;;;8.20;3.13;;;;;;;;;;10394145;28;20042;-70
2021/11/23 05:16:51;;;;;;;12.23;5.10;;;;;;;;;;10396446;28;20091;-69
2021/11/23 05:21:54;;;;;;;13.80;4.07;;;;;;;;;;10392314;28;20053;-69
2021/11/23 05:26:58;;;;;;;10.20;4.00;;;;;;;;;;10391984;28;20466;-70
2021/11/23 05:32:00;;;;;;;;;;;;;;;;;;10390294;28;20045;-71
2021/11/23 05:37:04;;;;;;;10.43;4.23;;;;;;;;;;10391809;28;20016;-71
2021/11/23 05:42:08;;;;;;;7.80;3.47;;;;;;;;;;10397009;28;20033;-70
2021/11/23 05:47:12;;;;;;;13.50;4.10;;;;;;;;;;10396307;28;20590;-70
2021/11/23 05:52:14;;;;;;;11.33;4.30;;;;;;;;;;10398149;28;20052;-69
2021/11/23 05:57:23;;;;;;;9.40;4.07;;;;;;;;;;10390200;28;20041;-70
2021/11/23 06:02:26;;;;;;;11.10;4.53;;;;;;;;;;10391980;28;20037;-70
2021/11/23 06:07:28;;;;;;;11.33;4.60;;;;;;;;;;10394494;28;20041;-72
2021/11/23 06:12:33;;;;;;;10.67;3.90;;;;;;;;;;10395582;28;20053;-71
2021/11/23 06:17:35;;;;;;;;;;;;;;;;;;10391989;28;20045;-71
2021/11/23 06:22:38;;;;;;;11.60;4.97;;;;;;;;;;10389464;28;19953;-70
2021/11/23 06:27:45;;;;;;;11.77;4.57;;;;;;;;;;10392744;28;20072;-71
2021/11/23 06:32:48;;;;;;;9.60;3.60;;;;;;;;;;10387499;28;20513;-70
2021/11/23 06:37:50;;;;;;;7.57;3.10;;;;;;;;;;10385149;28;20049;-69
2021/11/23 06:42:55;;;;;;;8.57;3.33;;;;;;;;;;10392054;28;20087;-71
2021/11/23 06:47:58;;;;;;;;;;;;;;;;;;10390222;28;20065;-70
2021/11/23 06:53:00;;;;;;;11.83;4.10;;;;;;;;;;10409525;28;20238;-69
2021/11/23 06:58:05;;;;;;;11.50;4.07;;;;;;;;;;10392028;28;20056;-69
2021/11/23 07:03:08;;;;;;;13.90;4.97;;;;;;;;;;10397840;28;20034;-71
2021/11/23 07:08:12;;;;;;;;;;;;;;;;;;10398049;28;20044;-70
2021/11/23 07:13:16;;;;;;;11.00;4.03;;;;;;;;;;10408368;28;20015;-71
2021/11/23 07:18:19;;;;;;;;;;;;;;;;;;10394034;28;20045;-68
2021/11/23 07:23:22;;;;;;;11.03;4.30;;;;;;;;;;10402089;28;20624;-70
2021/11/23 07:28:26;;;;;;;10.90;4.25;;;;;;;;;;10398507;28;20037;-69
2021/11/23 07:33:30;;;;;;;10.23;4.05;;;;;;;;;;10404857;28;20042;-69
2021/11/23 07:38:33;;;;;;;12.40;5.03;;;;;;;;;;10395891;28;20046;-70
2021/11/23 07:43:37;;;;;;;12.93;4.77;;;;;;;;;;10393087;28;20303;-71
2021/11/23 07:48:39;;;;;;;;;;;;;;;;;;10393689;28;20135;-69
2021/11/23 07:53:42;;;;;;;11.40;4.43;;;;;;;;;;10396158;28;19958;-68
2021/11/23 07:58:46;;;;;;;12.60;5.80;;;;;;;;;;10394868;28;20046;-71
2021/11/23 08:03:49;;;;;;;;;;;;;;;;;;10394795;28;20041;-70
2021/11/23 08:08:52;;;;;;;11.67;4.40;;;;;;;;;;10390715;28;19929;-71
2021/11/23 08:13:56;;;;;;;11.87;5.03;;;;;;;;;;10410391;28;20355;-71
2021/11/23 08:18:59;;;;;;;10.70;4.47;;;;;;;;;;10406207;28;20442;-70
2021/11/23 08:24:02;;;;;;;14.90;5.43;;;;;;;;;;10394604;28;20425;-71
2021/11/23 08:29:06;;;;;;;11.33;5.10;;;;;;;;;;10393913;28;20108;-69
2021/11/23 08:34:10;;;;;;;;;;;;;;;;;;10386832;28;20528;-70
2021/11/23 08:39:13;;;;;;;12.00;4.60;;;;;;;;;;10391281;28;20440;-70
2021/11/23 08:44:17;;;;;;;11.60;5.05;;;;;;;;;;10358388;28;1153148;-69
2021/11/23 08:49:20;;;;;;;;;;;;;;;;;;10381373;28;20042;-68
2021/11/23 08:54:22;;;;;;;9.85;4.72;;;;;;;;;;10394275;28;20012;-71
2021/11/23 08:59:27;;;;;;;11.32;5.28;;;;;;;;;;10395640;28;20083;-70
2021/11/23 09:04:30;;;;;;;;;;;;;;;;;;10403126;28;20100;-71
2021/11/23 09:09:34;;;;;;;15.02;6.80;;;;;;;;;;10404085;28;19988;-70
2021/11/23 09:14:38;;;;;;;9.00;5.43;;;;;;;;;;10393079;28;20097;-70
2021/11/23 09:19:41;;;;;;;9.32;5.60;;;;;;;;;;10393529;28;20037;-71
2021/11/23 09:24:44;;;;;;;12.43;6.53;;;;;;;;;;10398443;28;20098;-71
2021/11/23 09:29:48;;;;;;;8.40;5.82;;;;;;;;;;10396938;28;20052;-71
2021/11/23 09:34:53;;;;;;;9.00;5.60;;;;;;;;;;10388043;28;20145;-71
2021/11/23 09:39:57;;;;;;;9.25;6.18;;;;;;;;;;10399528;28;20486;-73
2021/11/23 09:45:03;;;;;;;12.30;6.93;;;;;;;;;;10400333;28;20049;-71
2021/11/23 09:50:06;;;;;;;11.93;7.55;;;;;;;;;;10393461;28;20050;-70
2021/11/23 09:55:11;;;;;;;13.53;7.10;;;;;;;;;;10407042;28;20040;-71
2021/11/23 10:00:26;;;;;;;10.60;5.60;;;;;;;;;;10397937;28;20297;-71
2021/11/23 10:05:33;;;;;;;14.10;6.43;;;;;;;;;;10395240;28;20556;-70
2021/11/23 10:10:40;;;;;;;14.05;6.43;;;;;;;;;;10393645;28;20060;-71
2021/11/23 10:15:48;;;;;;;14.32;6.60;;;;;;;;;;10387044;28;20474;-70
2021/11/23 10:20:57;;;;;;;12.77;5.65;;;;;;;;;;10388814;28;20486;-69
2021/11/23 10:26:02;;;;;;;14.65;6.22;;;;;;;;;;10394949;28;20063;-71
2021/11/23 10:31:07;;;;;;;16.00;6.60;;;;;;;;;;10382223;28;20120;-70
2021/11/23 10:36:10;;;;;;;15.10;6.47;;;;;;;;;;10391665;28;20041;-70
2021/11/23 10:41:14;;;;;;;14.20;6.40;;;;;;;;;;10384679;28;20061;-71
2021/11/23 10:46:20;;;;;;;15.90;5.93;;;;;;;;;;10388978;28;20034;-72
2021/11/23 10:51:24;;;;;;;15.18;5.95;;;;;;;;;;10391765;28;20497;-68
2021/11/23 10:56:26;;;;;;;12.93;5.95;;;;;;;;;;10378576;28;20072;-70
2021/11/23 11:01:32;;;;;;;13.85;6.82;;;;;;;;;;10394331;28;20033;-71
2021/11/23 11:06:35;;;;;;;12.85;6.32;;;;;;;;;;10390734;28;20045;-71
2021/11/23 11:11:38;;;;;;;13.93;6.63;;;;;;;;;;10399147;28;20042;-70
2021/11/23 11:16:43;;;;;;;9.43;5.18;;;;;;;;;;10398075;28;20571;-70
2021/11/23 11:22:03;;;;;;;11.70;6.15;;;;;;;;;;10392277;28;20129;-70
2021/11/23 11:27:31;;;;;;;12.88;6.47;;;;;;;;;;10388234;28;20355;-70
2021/11/23 11:32:36;;;;;;;11.05;6.57;;;;;;;;;;10388528;28;20045;-72
2021/11/23 11:37:39;;;;;;;9.85;6.82;;;;;;;;;;10408651;28;20128;-70
2021/11/23 11:42:58;;;;;;;7.40;3.90;;;;;;;;;;10397456;28;20041;-71
2021/11/23 11:48:02;;;;;;;9.07;5.60;;;;;;;;;;10398321;28;20100;-70
2021/11/23 11:53:10;;;;;;;9.52;5.85;;;;;;;;;;10401299;28;20041;-69
2021/11/23 11:58:13;;;;;;;9.93;5.88;;;;;;;;;;10389637;28;20114;-70
2021/11/23 12:03:37;;;;;;;12.73;5.40;;;;;;;;;;10398627;28;20083;-70
2021/11/23 12:08:41;;;;;;;9.88;5.40;;;;;;;;;;10401138;28;20041;-71
2021/11/23 12:13:47;;;;;;;10.93;5.60;;;;;;;;;;10393107;28;20033;-71
2021/11/23 12:19:11;;;;;;;11.85;5.93;;;;;;;;;;10394845;28;20124;-69
2021/11/23 12:24:24;;;;;;;12.20;5.63;;;;;;;;;;10400403;28;20430;-70
2021/11/23 12:29:28;;;;;;;10.35;5.20;;;;;;;;;;10393831;28;20080;-70
2021/11/23 12:34:30;;;;;;;10.60;5.35;;;;;;;;;;10381105;28;20486;-72
2021/11/23 12:39:38;;;;;;;7.10;3.97;;;;;;;;;;10393578;28;20065;-67
2021/11/23 12:44:43;;;;;;;10.25;6.18;;;;;;;;;;10395652;28;20041;-70
2021/11/23 12:49:45;;;;;;;;;;;;;;;;;;10399138;28;20053;-72
2021/11/23 12:54:50;;;;;;;8.13;4.25;;;;;;;;;;10389200;28;20005;-71
2021/11/23 12:59:56;;;;;;;10.52;5.72;;;;;;;;;;10397425;28;20042;-68
2021/11/23 13:05:00;;;;;;;6.80;3.83;;;;;;;;;;10389615;28;20383;-71
2021/11/23 13:10:02;;;;;;;;;;;;;;;;;;10392749;28;20054;-70
2021/11/23 13:15:09;;;;;;;9.40;4.38;;;;;;;;;;10392771;28;19920;-71
2021/11/23 13:20:14;;;;;;;10.05;3.85;;;;;;;;;;10408123;28;20099;-72
2021/11/23 13:25:18;;;;;;;10.68;5.07;;;;;;;;;;10400922;28;20037;-71
2021/11/23 13:30:50;;;;;;;12.30;5.88;;;;;;;;;;10408794;28;20068;-70
2021/11/23 13:35:59;;;;;;;9.00;5.03;;;;;;;;;;10393059;28;20454;-70
2021/11/23 13:41:10;;;;;;;9.75;4.80;;;;;;;;;;10397754;28;20097;-70
2021/11/23 13:46:13;;;;;;;10.55;4.95;;;;;;;;;;10394064;28;20056;-70
2021/11/23 13:51:18;;;;;;;10.63;5.30;;;;;;;;;;10397539;28;20065;-70
2021/11/23 13:56:22;;;;;;;12.73;5.28;;;;;;;;;;10393406;28;20037;-71
2021/11/23 14:01:29;;;;;;;10.38;5.25;;;;;;;;;;10390850;28;20060;-71
2021/11/23 14:06:33;;;;;;;6.13;3.50;;;;;;;;;;10395260;28;20087;-70
2021/11/23 14:11:36;;;;;;;11.73;4.80;;;;;;;;;;10400803;28;20448;-70
2021/11/23 14:16:52;;;;;;;8.55;5.03;;;;;;;;;;10399291;28;20160;-69
2021/11/23 14:21:57;;;;;;;10.88;4.78;;;;;;;;;;10391240;28;20037;-69
2021/11/23 14:27:02;;;;;;;11.75;5.22;;;;;;;;;;10391448;28;20033;-70
2021/11/23 14:32:06;;;;;;;9.73;2.85;;;;;;;;;;10398448;28;20376;-70
2021/11/23 14:37:11;;;;;;;14.17;4.40;;;;;;;;;;10390588;28;20045;-68
2021/11/23 14:42:13;;;;;;;;;;;;;;;;;;10425703;28;20459;-71
2021/11/23 14:47:17;;;;;;;12.57;3.95;;;;;;;;;;10425624;28;19943;-69
2021/11/23 14:52:21;;;;;;;6.70;3.38;;;;;;;;;;10402904;28;20038;-69
2021/11/23 14:57:23;;;;;;;;;;;;;;;;;;10381172;28;20052;-70
2021/11/23 15:02:27;;;;;;;12.38;5.28;;;;;;;;;;10397849;28;20015;-70
2021/11/23 15:07:33;;;;;;;13.60;5.63;;;;;;;;;;10389816;28;20073;-69
2021/11/23 15:12:36;;;;;;;13.13;5.50;;;;;;;;;;10399162;28;20037;-70
2021/11/23 15:17:40;;;;;;;10.98;5.28;;;;;;;;;;10403266;28;20481;-71
2021/11/23 15:22:44;;;;;;;13.45;6.03;;;;;;;;;;10405569;28;20044;-68
2021/11/23 15:27:50;;;;;;;12.05;5.32;;;;;;;;;;10406669;28;20045;-71
2021/11/23 15:32:57;;;;;;;12.20;5.43;;;;;;;;;;10404154;28;20573;-70
2021/11/23 15:38:01;;;;;;;14.88;6.45;;;;;;;;;;10403566;28;20045;-70
2021/11/23 15:43:03;;;;;;;;;;;;;;;;;;10398595;28;20052;-69
2021/11/23 15:48:06;;;;;;;12.35;5.63;;;;;;;;;;10397955;28;20019;-70
2021/11/23 15:53:12;;;;;;;14.65;6.28;;;;;;;;;;10401740;28;20049;-69
2021/11/23 15:58:15;;;;;;;13.25;6.15;;;;;;;;;;10401769;28;20049;-68
2021/11/23 16:03:18;;;;;;;17.88;7.65;;;;;;;;;;10416574;28;20068;-70
2021/11/23 16:08:23;;;;;;;9.27;4.07;;;;;;;;;;10399185;28;20064;-71
2021/11/23 16:13:26;;;;;;;12.57;5.25;;;;;;;;;;10394072;28;20044;-71
2021/11/23 16:18:29;;;;;;;18.30;7.18;;;;;;;;;;10398003;28;20048;-70
2021/11/23 16:23:33;;;;;;;23.48;10.98;;;;;;;;;;10400701;28;20034;-69
2021/11/23 16:28:36;;;;;;;18.53;4.97;;;;;;;;;;10393484;28;20073;-70
2021/11/23 16:33:39;;;;;;;13.23;5.97;;;;;;;;;;10392469;28;20133;-69
2021/11/23 16:38:43;;;;;;;22.77;7.73;;;;;;;;;;10398895;28;20475;-71
2021/11/23 16:43:46;;;;;;;18.83;7.47;;;;;;;;;;10405162;28;20076;-70
2021/11/23 16:48:49;;;;;;;13.02;5.68;;;;;;;;;;10396605;28;20120;-70
2021/11/23 16:53:56;;;;;;;8.93;3.80;;;;;;;;;;10394035;28;20095;-70
2021/11/23 16:58:58;;;;;;;14.50;6.50;;;;;;;;;;10402017;28;20068;-71
2021/11/23 17:04:10;;;;;;;14.00;6.40;;;;;;;;;;10399865;28;20140;-69
2021/11/23 17:09:15;;;;;;;8.40;3.22;;;;;;;;;;10395940;28;20056;-71
2021/11/23 17:14:20;;;;;;;17.42;7.07;;;;;;;;;;10384740;28;20100;-70
2021/11/23 17:19:23;;;;;;;18.07;7.67;;;;;;;;;;10390482;28;20041;-68
2021/11/23 17:24:27;;;;;;;16.97;7.03;;;;;;;;;;10389551;28;20494;-72
2021/11/23 17:29:31;;;;;;;;;;;;;;;;;;10398198;28;20078;-68
2021/11/23 17:34:36;;;;;;;18.33;7.43;;;;;;;;;;10394872;28;20019;-70
2021/11/23 17:39:45;;;;;;;15.57;7.70;;;;;;;;;;10390642;28;20526;-69
2021/11/23 17:44:48;;;;;;;15.18;5.97;;;;;;;;;;10394871;28;20045;-68
2021/11/23 17:49:52;;;;;;;17.52;7.97;;;;;;;;;;10395401;28;20045;-70
2021/11/23 17:54:58;;;;;;;19.08;7.60;;;;;;;;;;10390103;28;20080;-70
2021/11/23 18:00:01;;;;;;;12.33;5.93;;;;;;;;;;10394684;28;20045;-69
2021/11/23 18:05:05;;;;;;;14.70;5.93;;;;;;;;;;10392293;28;20046;-70
2021/11/23 18:10:09;;;;;;;11.23;5.20;;;;;;;;;;10393726;28;20473;-68
2021/11/23 18:15:12;;;;;;;;;;;;;;;;;;10400969;28;20041;-71
2021/11/23 18:20:15;;;;;;;17.30;6.97;;;;;;;;;;10399046;28;19921;-70
2021/11/23 18:25:20;;;;;;;10.77;5.07;;;;;;;;;;10389502;28;20085;-71
2021/11/23 18:30:23;;;;;;;17.10;7.27;;;;;;;;;;10393293;28;20044;-70
2021/11/23 18:35:27;;;;;;;12.67;4.67;;;;;;;;;;10393648;28;20052;-70
2021/11/23 18:40:32;;;;;;;17.02;6.63;;;;;;;;;;10389938;28;20070;-70
2021/11/23 18:45:36;;;;;;;16.90;7.63;;;;;;;;;;10391990;28;20410;-70
2021/11/23 18:50:39;;;;;;;;;;;;;;;;;;10395471;28;20107;-70
2021/11/23 18:55:47;;;;;;;20.75;7.63;;;;;;;;;;10400909;28;19921;-69
2021/11/23 19:00:51;;;;;;;16.60;7.40;;;;;;;;;;10404529;28;20128;-72
2021/11/23 19:05:54;;;;;;;18.55;7.68;;;;;;;;;;10399397;28;20049;-70
2021/11/23 19:10:58;;;;;;;22.67;7.70;;;;;;;;;;10398735;28;20049;-70
2021/11/23 19:16:05;;;;;;;17.48;7.63;;;;;;;;;;10402187;28;20052;-71
2021/11/23 19:21:08;;;;;;;19.13;7.87;;;;;;;;;;10407754;28;20045;-71
2021/11/23 19:26:12;;;;;;;22.67;9.00;;;;;;;;;;10406430;28;20089;-69
2021/11/23 19:31:15;;;;;;;;;;;;;;;;;;10408880;28;20030;-70
2021/11/23 19:36:18;;;;;;;19.57;7.60;;;;;;;;;;10402951;28;19959;-69
2021/11/23 19:41:22;;;;;;;21.00;7.97;;;;;;;;;;10397884;28;20045;-70
2021/11/23 19:46:24;;;;;;;;;;;;;;;;;;10403175;28;20403;-70
2021/11/23 19:51:28;;;;;;;20.67;8.10;;;;;;;;;;10404374;28;19925;-69
2021/11/23 19:56:33;;;;;;;22.70;8.75;;;;;;;;;;10405457;28;20176;-69
2021/11/23 20:01:35;;;;;;;20.60;7.77;;;;;;;;;;10397784;28;20037;-71
2021/11/23 20:06:39;;;;;;;22.73;8.37;;;;;;;;;;10401217;28;20505;-69
2021/11/23 20:11:44;;;;;;;22.83;8.53;;;;;;;;;;10401960;28;20552;-68
2021/11/23 20:16:47;;;;;;;20.23;8.47;;;;;;;;;;10398947;28;20439;-71
2021/11/23 20:21:50;;;;;;;25.50;9.73;;;;;;;;;;10396620;28;20120;-69
2021/11/23 20:26:54;;;;;;;31.40;10.27;;;;;;;;;;10399533;28;20103;-69
2021/11/23 20:31:57;;;;;;;;;;;;;;;;;;10399720;28;20525;-70
2021/11/23 20:37:01;;;;;;;;;;;;;;;;;;10391966;28;19976;-69
2021/11/23 20:42:07;;;;;;;20.00;7.47;;;;;;;;;;10399161;28;19928;-71
2021/11/23 20:47:11;;;;;;;19.43;7.63;;;;;;;;;;10397147;28;20175;-71
2021/11/23 20:52:14;;;;;;;22.67;8.77;;;;;;;;;;10402076;28;20050;-69
2021/11/23 20:57:18;;;;;;;20.40;7.30;;;;;;;;;;10401152;28;20068;-70
2021/11/23 21:02:21;;;;;;;17.97;7.07;;;;;;;;;;10398231;28;20033;-69
2021/11/23 21:07:27;;;;;;;23.23;7.73;;;;;;;;;;10394924;28;20045;-71
2021/11/23 21:12:31;;;;;;;26.70;7.27;;;;;;;;;;10406286;28;20033;-70
2021/11/23 21:17:34;;;;;;;;;;;;;;;;;;10389639;28;20042;-71
2021/11/23 21:22:37;;;;;;;19.40;6.57;;;;;;;;;;10394543;28;19992;-70
2021/11/23 21:27:41;;;;;;;21.73;7.87;;;;;;;;;;10393084;28;20557;-71
2021/11/23 21:32:43;;;;;;;;;;;;;;;;;;10394272;28;20068;-72
2021/11/23 21:37:51;;;;;;;19.90;7.73;;;;;;;;;;10396180;28;20008;-69
2021/11/23 21:48:24;;;;;;;22.60;7.40;;;;;;;;;;10393320;28;20424;-71
2021/11/23 21:53:27;;;;;;;18.70;7.03;;;;;;;;;;10393262;28;20133;-69
2021/11/23 21:58:31;;;;;;;18.73;7.17;;;;;;;;;;10401841;28;20051;-71
2021/11/23 22:03:35;;;;;;;16.80;6.30;;;;;;;;;;10412088;28;20033;-70
2021/11/23 22:08:38;;;;;;;19.53;7.40;;;;;;;;;;10400185;28;20045;-70
2021/11/23 22:13:43;;;;;;;20.60;7.67;;;;;;;;;;10395952;28;20079;-69
2021/11/23 22:18:46;;;;;;;22.37;7.43;;;;;;;;;;10396950;28;20041;-69
2021/11/23 22:23:48;;;;;;;22.00;7.43;;;;;;;;;;10387766;28;20122;-72
2021/11/23 22:28:53;;;;;;;20.60;6.50;;;;;;;;;;10396040;28;20037;-70
2021/11/23 22:33:56;;;;;;;;;;;;;;;;;;10390885;28;20045;-71
2021/11/23 22:38:59;;;;;;;16.53;6.87;;;;;;;;;;10397203;28;19972;-68
2021/11/23 22:44:03;;;;;;;18.60;7.23;;;;;;;;;;10392010;28;20054;-68
2021/11/23 22:49:06;;;;;;;22.70;7.47;;;;;;;;;;10396867;28;20103;-70
2021/11/23 22:54:10;;;;;;;;;;;;;;;;;;10396182;28;20048;-71
2021/11/23 22:59:14;;;;;;;16.93;6.30;;;;;;;;;;10396220;28;20003;-70
2021/11/23 23:04:17;;;;;;;;;;;;;;;;;;10394100;28;20092;-70
2021/11/23 23:09:22;;;;;;;8.47;2.97;;;;;;;;;;10397353;28;20377;-70
2021/11/23 23:14:26;;;;;;;20.70;7.57;;;;;;;;;;10395784;28;20045;-69
2021/11/23 23:19:28;;;;;;;20.13;7.00;;;;;;;;;;10394690;28;20042;-69
2021/11/23 23:24:31;;;;;;;17.80;6.53;;;;;;;;;;10382456;28;20042;-70
2021/11/23 23:29:37;;;;;;;16.00;6.63;;;;;;;;;;10389998;28;20470;-70
2021/11/23 23:34:39;;;;;;;22.73;7.60;;;;;;;;;;10402673;28;20077;-69
2021/11/23 23:39:42;;;;;;;13.17;5.97;;;;;;;;;;10404587;28;20041;-70
2021/11/23 23:44:47;;;;;;;20.60;7.03;;;;;;;;;;10399259;28;20076;-70
2021/11/23 23:49:49;;;;;;;;;;;;;;;;;;10408280;28;20037;-70
2021/11/23 23:54:52;;;;;;;17.73;7.00;;;;;;;;;;10401640;28;19932;-68
2021/11/23 23:59:56;;;;;;;14.80;5.43;;;;;;;;;;10389433;28;20562;-68
